Flight Number: AVA1670 Duration: 1:20
Departure: Gatwick Airport (EGKK) at 14:10 Distance: 339.439 Nm
Arrival: Frankfurt am Main (EDDF) at 15:30 Equipment: MD-81

Weather Information
London / Gatwick Airport, United Kingdom (EGKK) 51-09N 000-11W 0M Mar 01, 2021 - 11:50 PM EST / 2021.03.02 0450 UTC
Wind: from the NE (040 degrees) at 5 MPH (4 KT) (direction variable):0
Visibility: 1 mile(s):0
Sky conditions: mostly cloudy Weather: mist Temperature: 37 F (3 C) Dew Point: 35 F (2 C) Relative Humidity: 93% Pressure (altimeter): 30.39 in. Hg (1029 hPa)
ob: EGKK 020450Z 04004KT 020V080 2000 BR BKN004 03/02 Q1029 cycle: 5
Sunrise: 06:45 Sunset: 17:40 (UTC)

Frankfurt / M-Flughafen, Germany (EDDF) 50-03N 008-36E 113M Mar 01, 2021 - 11:50 PM EST / 2021.03.02 0450 UTC
Wind: from the NNE (020 degrees) at 8 MPH (7 KT):0
Visibility: greater than 7 mile(s):0 Temperature: 37 F (3 C) Dew Point: 33 F (1 C) Relative Humidity: 86% Pressure (altimeter): 30.45 in. Hg (1031 hPa)
ob: EDDF 020450Z 02007KT CAVOK 03/01 Q1031 NOSIG cycle: 5
Sunrise: 06:08 Sunset: 17:06 (UTC)

TAF:2021/03/01 18:28 TAF EDDF 011700Z 0118/0224 03006KT CAVOK PROB30 TEMPO 0204/0207 4000 BR BECMG 0210/0212 12004KT

Previous Pireps for this route
Date Aircraft Flight time Fuel used Landing rate On time
2018-08-18MD-811.399455-279Yes
(pireps marked green are flown by you)

Route map